Aquinnah, Massachusetts
Current Conditions -  °F | °C
As of 9:53 PM on Wednesday 26 Nov 2014 (Local Time) from KMVY Reporting Station
Light Rain Light Rain  
Wind Chill:   Ceiling: 1000
Heat Index:   Visibility: 2.5mi
Dew Point:   Wind: 20mph
Humidity: 93%   Direction: 20°NNE
Pressure: 29.49"   Gusts: 37mph
Location:  41.3536°N, 70.7417°W
Report Text: KMVY 270253Z AUTO 02017G32KT 2 1/2SM -RA BR OVC010 07/06 A2949 RMK AO2 PK WND 03034/0155 SLP987 P0005 60014 T00720061 56057
Loading
Personal Weather Stations






























Interactive Weather Map New forecast layout! Learn more

10-Day Weather Forecast

Advertisements
Track Severe Weather on mobile